Terminal Aerodrome Forecast
Issued by NWS

Current Version | Previous Version | Text Only | Print | Product List | Glossary On
Versions: 1 2 3 4 5 6 7 8 9 10 11 12
356
FTUS41 KBTV 221120
TAFRUT
TAF
KRUT 221120Z 2212/2312 13008KT P6SM SCT250
     FM221400 VRB04KT P6SM SCT250
     FM222300 13007KT P6SM SCT250=

USA.gov is the U.S. government's official web portal to all federal, state and local government web resources and services.